Observation data for Turkey on 11/19/2019      Previous  Date       Current Mesonet Observations  Soil Data  Daily Summary Page  Observations in Plain Language
KTUR 190600Z 28003KT 09/M01 A2995 RMK A01 T00911012  RH  049%=      5-min Rain = 0
KTUR 190605Z 24003KT 08/M01 A2995 RMK A01 T00811011  RH  053%=      5-min Rain = 0
KTUR 190610Z 24003KT 08/M01 A2995 RMK A01 T00771011  RH  054%=      5-min Rain = 0
KTUR 190615Z 27003KT 08/M01 A2995 RMK A01 T00821011  RH  052%=      5-min Rain = 0
KTUR 190620Z 24005KT 09/M01 A2995 RMK A01 T00871010  RH  051%=      5-min Rain = 0
KTUR 190625Z 24005KT 09/M01 A2995 RMK A01 T00941011  RH  048%=      5-min Rain = 0
KTUR 190630Z 24006KT 09/M01 A2995 RMK A01 T00921010  RH  050%=      5-min Rain = 0
KTUR 190635Z 23008KT 09/M01 A2996 RMK A01 T00851009  RH  052%=      5-min Rain = 0
KTUR 190640Z 24008KT 08/M01 A2996 RMK A01 T00771010  RH  055%=      5-min Rain = 0
KTUR 190645Z 24009KT 08/M01 A2996 RMK A01 T00771010  RH  055%=      5-min Rain = 0
KTUR 190650Z 24007KT 08/M01 A2996 RMK A01 T00821011  RH  053%=      5-min Rain = 0
KTUR 190655Z 24006KT 10/M01 A2996 RMK A01 T00951010  RH  049%=      5-min Rain = 0
KTUR 190700Z 25005KT 11/M01 A2996 RMK A01 T01061009  RH  045%=      5-min Rain = 0
KTUR 190705Z 25005KT 11/M01 A2996 RMK A01 T01071008  RH  045%=      5-min Rain = 0
KTUR 190710Z 26005KT 11/M01 A2996 RMK A01 T01121008  RH  044%=      5-min Rain = 0
KTUR 190715Z 26005KT 12/M01 A2996 RMK A01 T01211008  RH  041%=      5-min Rain = 0
KTUR 190720Z 26004KT 13/M01 A2996 RMK A01 T01291009  RH  039%=      5-min Rain = 0
KTUR 190725Z 25004KT 11/M01 A2996 RMK A01 T01131008  RH  044%=      5-min Rain = 0
KTUR 190730Z 26005KT 12/M01 A2996 RMK A01 T01241009  RH  040%=      5-min Rain = 0
KTUR 190735Z 25005KT 12/M01 A2996 RMK A01 T01191006  RH  042%=      5-min Rain = 0
KTUR 190740Z 23007KT 11/M01 A2996 RMK A01 T01051005  RH  047%=      5-min Rain = 0
KTUR 190745Z 22006KT 09/M01 A2995 RMK A01 T00861009  RH  052%=      5-min Rain = 0
KTUR 190750Z 23004KT 08/M01 A2995 RMK A01 T00781009  RH  054%=      5-min Rain = 0
KTUR 190755Z 26004KT 10/M01 A2994 RMK A01 T00981010  RH  048%=      5-min Rain = 0
KTUR 190800Z 26004KT 11/M01 A2994 RMK A01 T01121010  RH  043%=      5-min Rain = 0
KTUR 190805Z 27003KT 13/M01 A2994 RMK A01 T01261012  RH  039%=      5-min Rain = 0
KTUR 190810Z 28004KT 13/M01 A2994 RMK A01 T01301014  RH  037%=      5-min Rain = 0
KTUR 190815Z 27004KT 13/M01 A2995 RMK A01 T01271013  RH  038%=      5-min Rain = 0
KTUR 190820Z 28004KT 12/M01 A2995 RMK A01 T01231011  RH  040%=      5-min Rain = 0
KTUR 190825Z 28005KT 12/M01 A2995 RMK A01 T01211012  RH  040%=      5-min Rain = 0
KTUR 190830Z 29006KT 12/M01 A2995 RMK A01 T01211011  RH  040%=      5-min Rain = 0
KTUR 190835Z 29006KT 13/M01 A2995 RMK A01 T01251011  RH  039%=      5-min Rain = 0
KTUR 190840Z 29006KT 13/M01 A2995 RMK A01 T01311013  RH  037%=      5-min Rain = 0
KTUR 190845Z 29005KT 14/M01 A2995 RMK A01 T01351013  RH  036%=      5-min Rain = 0
KTUR 190850Z 29005KT 13/M01 A2995 RMK A01 T01331012  RH  037%=      5-min Rain = 0
KTUR 190855Z 28006KT 13/M01 A2995 RMK A01 T01311013  RH  037%=      5-min Rain = 0
KTUR 190900Z 28005KT 14/M01 A2995 RMK A01 T01351013  RH  036%=      5-min Rain = 0
KTUR 190905Z 29005KT 13/M01 A2996 RMK A01 T01341012  RH  037%=      5-min Rain = 0
KTUR 190910Z 29005KT 13/M01 A2996 RMK A01 T01321012  RH  037%=      5-min Rain = 0
KTUR 190915Z 29005KT 13/M01 A2996 RMK A01 T01321012  RH  037%=      5-min Rain = 0
KTUR 190920Z 30005KT 14/M01 A2996 RMK A01 T01351012  RH  037%=      5-min Rain = 0
KTUR 190925Z 31006KT 13/M01 A2996 RMK A01 T01281012  RH  038%=      5-min Rain = 0
KTUR 190930Z 30007KT 11/M01 A2996 RMK A01 T01131011  RH  043%=      5-min Rain = 0
KTUR 190935Z 31007KT 11/M01 A2996 RMK A01 T01111011  RH  043%=      5-min Rain = 0
KTUR 190940Z 30007KT 11/M01 A2996 RMK A01 T01051010  RH  045%=      5-min Rain = 0
KTUR 190945Z 30007KT 10/M01 A2996 RMK A01 T00961009  RH  049%=      5-min Rain = 0
KTUR 190950Z 31008KT 09/M01 A2996 RMK A01 T00881008  RH  052%=      5-min Rain = 0
KTUR 190955Z 31009KT 08/M01 A2996 RMK A01 T00841007  RH  053%=      5-min Rain = 0
KTUR 191000Z 31008KT 09/M01 A2996 RMK A01 T00921008  RH  050%=      5-min Rain = 0
KTUR 191005Z 31008KT 10/M01 A2996 RMK A01 T00951008  RH  049%=      5-min Rain = 0
KTUR 191010Z 31008KT 10/M01 A2996 RMK A01 T00951008  RH  049%=      5-min Rain = 0
KTUR 191015Z 31008KT 10/M01 A2996 RMK A01 T00961008  RH  049%=      5-min Rain = 0
KTUR 191020Z 30008KT 10/M01 A2996 RMK A01 T00961009  RH  049%=      5-min Rain = 0
KTUR 191025Z 29007KT 10/M01 A2996 RMK A01 T00951008  RH  049%=      5-min Rain = 0
KTUR 191030Z 25004KT 09/M01 A2996 RMK A01 T00911007  RH  051%=      5-min Rain = 0
KTUR 191035Z 22007KT 08/M01 A2996 RMK A01 T00821007  RH  054%=      5-min Rain = 0
KTUR 191040Z 22009KT 07/M01 A2996 RMK A01 T00681007  RH  060%=      5-min Rain = 0
KTUR 191045Z 22010KT 07/M01 A2996 RMK A01 T00701006  RH  059%=      5-min Rain = 0
KTUR 191050Z 23009KT 07/M01 A2996 RMK A01 T00731006  RH  058%=      5-min Rain = 0
KTUR 191055Z 23008KT 07/M01 A2996 RMK A01 T00731006  RH  058%=      5-min Rain = 0
KTUR 191100Z 24007KT 08/M01 A2996 RMK A01 T00761006  RH  057%=      5-min Rain = 0
KTUR 191105Z 24007KT 08/M01 A2996 RMK A01 T00781006  RH  056%=      5-min Rain = 0
KTUR 191110Z 23006KT 08/M01 A2996 RMK A01 T00761005  RH  057%=      5-min Rain = 0
KTUR 191115Z 22005KT 08/M01 A2996 RMK A01 T00781006  RH  056%=      5-min Rain = 0
KTUR 191120Z 21003KT 09/M01 A2995 RMK A01 T00911007  RH  051%=      5-min Rain = 0
KTUR 191125Z 21002KT 11/M01 A2995 RMK A01 T01091008  RH  045%=      5-min Rain = 0
KTUR 191130Z 21003KT 11/M01 A2995 RMK A01 T01111008  RH  044%=      5-min Rain = 0
KTUR 191135Z 20002KT 11/M01 A2995 RMK A01 T01091008  RH  045%=      5-min Rain = 0
KTUR 191140Z 20004KT 10/M01 A2995 RMK A01 T01031007  RH  047%=      5-min Rain = 0
KTUR 191145Z 21004KT 09/M01 A2994 RMK A01 T00941007  RH  050%=      5-min Rain = 0
KTUR 191150Z 20004KT 09/M01 A2994 RMK A01 T00921007  RH  050%=      5-min Rain = 0
KTUR 191155Z 20003KT 09/M01 A2994 RMK A01 T00931008  RH  050%=      5-min Rain = 0
KTUR 191200Z 19003KT 09/M01 A2994 RMK A01 T00901008  RH  051%=      5-min Rain = 0
KTUR 191205Z 18002KT 09/M01 A2993 RMK A01 T00891008  RH  051%=      5-min Rain = 0
KTUR 191210Z 16003KT 09/M01 A2993 RMK A01 T00911008  RH  051%=      5-min Rain = 0
KTUR 191215Z 15003KT 09/M01 A2993 RMK A01 T00931008  RH  050%=      5-min Rain = 0
KTUR 191220Z 14004KT 09/M01 A2993 RMK A01 T00921008  RH  050%=      5-min Rain = 0
KTUR 191225Z 14003KT 09/M01 A2992 RMK A01 T00881008  RH  051%=      5-min Rain = 0
KTUR 191230Z 12005KT 09/M01 A2992 RMK A01 T00871008  RH  052%=      5-min Rain = 0
KTUR 191235Z 12004KT 09/M01 A2992 RMK A01 T00871008  RH  052%=      5-min Rain = 0
KTUR 191240Z 22006KT 07/M01 A2992 RMK A01 T00671007  RH  060%=      5-min Rain = 0
KTUR 191245Z 21005KT 06/M01 A2992 RMK A01 T00591007  RH  063%=      5-min Rain = 0
KTUR 191250Z 22005KT 06/M01 A2993 RMK A01 T00551008  RH  065%=      5-min Rain = 0
KTUR 191255Z 23005KT 06/M01 A2993 RMK A01 T00571007  RH  064%=      5-min Rain = 0
KTUR 191300Z 23005KT 06/M01 A2993 RMK A01 T00611007  RH  062%=      5-min Rain = 0
KTUR 191305Z 24005KT 07/M01 A2993 RMK A01 T00651006  RH  061%=      5-min Rain = 0
KTUR 191310Z 26005KT 07/M01 A2994 RMK A01 T00671006  RH  060%=      5-min Rain = 0
KTUR 191315Z 26005KT 07/M01 A2994 RMK A01 T00741006  RH  058%=      5-min Rain = 0
KTUR 191320Z 26005KT 08/M01 A2994 RMK A01 T00771006  RH  056%=      5-min Rain = 0
KTUR 191325Z 24006KT 08/M00 A2994 RMK A01 T00841004  RH  055%=      5-min Rain = 0
KTUR 191330Z 24008KT 08/M00 A2994 RMK A01 T00831002  RH  056%=      5-min Rain = 0
KTUR 191335Z 24008KT 08/M00 A2994 RMK A01 T00801001  RH  057%=      5-min Rain = 0
KTUR 191340Z 24008KT 07/M00 A2995 RMK A01 T00721003  RH  060%=      5-min Rain = 0
KTUR 191345Z 24007KT 07/M00 A2994 RMK A01 T00721002  RH  060%=      5-min Rain = 0
KTUR 191350Z 24008KT 08/M00 A2994 RMK A01 T00821001  RH  056%=      5-min Rain = 0
KTUR 191355Z 23007KT 09/00 A2994 RMK A01 T00900001  RH  054%=      5-min Rain = 0
KTUR 191400Z 23007KT 10/00 A2994 RMK A01 T00980003  RH  052%=      5-min Rain = 0
KTUR 191405Z 23007KT 10/00 A2994 RMK A01 T01020004  RH  051%=      5-min Rain = 0
KTUR 191410Z 23007KT 10/00 A2994 RMK A01 T01030004  RH  051%=      5-min Rain = 0
KTUR 191415Z 22006KT 11/00 A2994 RMK A01 T01060004  RH  050%=      5-min Rain = 0
KTUR 191420Z 22007KT 11/01 A2994 RMK A01 T01080005  RH  049%=      5-min Rain = 0
KTUR 191425Z 22006KT 11/01 A2994 RMK A01 T01120005  RH  048%=      5-min Rain = 0
KTUR 191430Z 23005KT 11/01 A2994 RMK A01 T01140005  RH  048%=      5-min Rain = 0
KTUR 191435Z 22005KT 12/01 A2995 RMK A01 T01150006  RH  048%=      5-min Rain = 0
KTUR 191440Z 22005KT 12/01 A2995 RMK A01 T01180007  RH  047%=      5-min Rain = 0
KTUR 191445Z 22004KT 12/01 A2995 RMK A01 T01210009  RH  047%=      5-min Rain = 0
KTUR 191450Z 21005KT 12/01 A2995 RMK A01 T01240009  RH  046%=      5-min Rain = 0
KTUR 191455Z 21003KT 13/01 A2995 RMK A01 T01270012  RH  046%=      5-min Rain = 0
KTUR 191500Z 20003KT 13/01 A2995 RMK A01 T01340014  RH  045%=      5-min Rain = 0
KTUR 191505Z 21003KT 14/02 A2995 RMK A01 T01430016  RH  043%=      5-min Rain = 0
KTUR 191510Z 21004KT 15/01 A2995 RMK A01 T01470013  RH  041%=      5-min Rain = 0
KTUR 191515Z 22004KT 15/01 A2995 RMK A01 T01460013  RH  041%=      5-min Rain = 0
KTUR 191520Z 22004KT 15/01 A2995 RMK A01 T01450012  RH  041%=      5-min Rain = 0
KTUR 191525Z 22004KT 15/01 A2995 RMK A01 T01480013  RH  040%=      5-min Rain = 0
KTUR 191530Z 23004KT 15/01 A2995 RMK A01 T01520013  RH  039%=      5-min Rain = 0
KTUR 191535Z 23003KT 16/02 A2995 RMK A01 T01560016  RH  039%=      5-min Rain = 0
KTUR 191540Z 23003KT 16/02 A2995 RMK A01 T01590017  RH  039%=      5-min Rain = 0
KTUR 191545Z 24003KT 17/02 A2995 RMK A01 T01650016  RH  037%=      5-min Rain = 0
KTUR 191550Z 24002KT 17/01 A2995 RMK A01 T01670014  RH  036%=      5-min Rain = 0
KTUR 191555Z 23002KT 17/01 A2995 RMK A01 T01700012  RH  035%=      5-min Rain = 0
KTUR 191600Z 27003KT 17/01 A2995 RMK A01 T01710013  RH  035%=      5-min Rain = 0
KTUR 191605Z 25002KT 17/01 A2995 RMK A01 T01740013  RH  034%=      5-min Rain = 0
KTUR 191610Z 30001KT 18/01 A2995 RMK A01 T01800014  RH  033%=      5-min Rain = 0
KTUR 191615Z 27001KT 19/01 A2995 RMK A01 T01850014  RH  032%=      5-min Rain = 0
KTUR 191620Z 13002KT 19/02 A2995 RMK A01 T01910015  RH  031%=      5-min Rain = 0
KTUR 191625Z 09003KT 19/01 A2994 RMK A01 T01870014  RH  032%=      5-min Rain = 0
KTUR 191630Z 10004KT 19/01 A2994 RMK A01 T01850014  RH  032%=      5-min Rain = 0
KTUR 191635Z 09004KT 19/02 A2994 RMK A01 T01880016  RH  032%=      5-min Rain = 0
KTUR 191640Z 10005KT 19/02 A2994 RMK A01 T01920016  RH  031%=      5-min Rain = 0
KTUR 191645Z 10005KT 19/02 A2994 RMK A01 T01930015  RH  031%=      5-min Rain = 0
KTUR 191650Z 11006KT 19/02 A2993 RMK A01 T01930015  RH  031%=      5-min Rain = 0
KTUR 191655Z 11007KT 19/02 A2993 RMK A01 T01930016  RH  031%=      5-min Rain = 0
KTUR 191700Z 12008KT 20/02 A2993 RMK A01 T01970017  RH  030%=      5-min Rain = 0
KTUR 191705Z 12009KT 20/02 A2993 RMK A01 T02000017  RH  030%=      5-min Rain = 0
KTUR 191710Z 11008KT 20/02 A2992 RMK A01 T02040018  RH  029%=      5-min Rain = 0
KTUR 191715Z 12009KT 21/02 A2992 RMK A01 T02060018  RH  029%=      5-min Rain = 0
KTUR 191720Z 12010KT 21/02 A2991 RMK A01 T02080020  RH  029%=      5-min Rain = 0
KTUR 191725Z 12011KT 21/02 A2991 RMK A01 T02110019  RH  028%=      5-min Rain = 0
KTUR 191730Z 12012KT 21/02 A2991 RMK A01 T02140020  RH  028%=      5-min Rain = 0
KTUR 191735Z 12013KT 21/02 A2991 RMK A01 T02100022  RH  029%=      5-min Rain = 0
KTUR 191740Z 12012KT 21/03 A2991 RMK A01 T02100025  RH  030%=      5-min Rain = 0
KTUR 191745Z 12014KT 21/03 A299 RMK A01 T02080026  RH  030%=      5-min Rain = 0
KTUR 191750Z 12013KT 21/03 A299 RMK A01 T02130027  RH  030%=      5-min Rain = 0
KTUR 191755Z 13013KT 22/03 A299 RMK A01 T02200028  RH  029%=      5-min Rain = 0
KTUR 191800Z 12012KT 23/03 A2989 RMK A01 T02250028  RH  028%=      5-min Rain = 0
KTUR 191805Z 12012G18KT 23/03 A2989 RMK A01 T02290029  RH  027%=      5-min Rain = 0
KTUR 191810Z 14015G20KT 23/02 A2989 RMK A01 T02320023  RH  026%=      5-min Rain = 0
KTUR 191815Z 13015G21KT 23/02 A2988 RMK A01 T02300024  RH  026%=      5-min Rain = 0
KTUR 191820Z 13016G22KT 23/02 A2988 RMK A01 T02300023  RH  026%=      5-min Rain = 0
KTUR 191825Z 13016KT 23/02 A2988 RMK A01 T02290022  RH  026%=      5-min Rain = 0
KTUR 191830Z 14016KT 23/02 A2987 RMK A01 T02310023  RH  026%=      5-min Rain = 0
KTUR 191835Z 13015KT 24/02 A2987 RMK A01 T02350024  RH  025%=      5-min Rain = 0
KTUR 191840Z 13015KT 24/02 A2987 RMK A01 T02380022  RH  025%=      5-min Rain = 0
KTUR 191845Z 14015KT 24/02 A2986 RMK A01 T02440020  RH  023%=      5-min Rain = 0
KTUR 191850Z 15014KT 24/02 A2986 RMK A01 T02440017  RH  023%=      5-min Rain = 0
KTUR 191855Z 13015G20KT 25/02 A2985 RMK A01 T02470017  RH  023%=      5-min Rain = 0
KTUR 191900Z 13014G20KT 25/01 A2985 RMK A01 T02460012  RH  022%=      5-min Rain = 0
KTUR 191905Z 15014G19KT 25/00 A2985 RMK A01 T02520000  RH  019%=      5-min Rain = 0
KTUR 191910Z 14014KT 25/M00 A2985 RMK A01 T02521001  RH  019%=      5-min Rain = 0
KTUR 191915Z 16014G20KT 26/M00 A2984 RMK A01 T02551003  RH  019%=      5-min Rain = 0
KTUR 191920Z 15016KT 26/M01 A2984 RMK A01 T02571006  RH  018%=      5-min Rain = 0
KTUR 191925Z 15015G20KT 26/M01 A2984 RMK A01 T02591005  RH  018%=      5-min Rain = 0
KTUR 191930Z 16015G20KT 26/M01 A2983 RMK A01 T02621006  RH  017%=      5-min Rain = 0
KTUR 191935Z 15016KT 26/M01 A2983 RMK A01 T02611006  RH  018%=      5-min Rain = 0
KTUR 191940Z 17017G22KT 26/M01 A2982 RMK A01 T02581006  RH  018%=      5-min Rain = 0
KTUR 191945Z 15017KT 26/M00 A2982 RMK A01 T02631004  RH  018%=      5-min Rain = 0
KTUR 191950Z 16018G24KT 26/M00 A2982 RMK A01 T02621004  RH  018%=      5-min Rain = 0
KTUR 191955Z 16018G23KT 26/M00 A2981 RMK A01 T02611003  RH  018%=      5-min Rain = 0
KTUR 192000Z 15016G21KT 26/M00 A2981 RMK A01 T02611003  RH  018%=      5-min Rain = 0
KTUR 192005Z 17016G22KT 26/00 A2981 RMK A01 T02600001  RH  018%=      5-min Rain = 0
KTUR 192010Z 16018KT 26/00 A2981 RMK A01 T02620003  RH  019%=      5-min Rain = 0
KTUR 192015Z 16016KT 26/00 A2981 RMK A01 T02630004  RH  019%=      5-min Rain = 0
KTUR 192020Z 16018KT 26/00 A2981 RMK A01 T02620004  RH  019%=      5-min Rain = 0
KTUR 192025Z 16017G25KT 26/01 A2981 RMK A01 T02620007  RH  019%=      5-min Rain = 0
KTUR 192030Z 17016KT 26/01 A2981 RMK A01 T02610010  RH  020%=      5-min Rain = 0
KTUR 192035Z 16017G25KT 26/01 A2981 RMK A01 T02600012  RH  020%=      5-min Rain = 0
KTUR 192040Z 16017KT 26/02 A298 RMK A01 T02590015  RH  021%=      5-min Rain = 0
KTUR 192045Z 17018G23KT 26/02 A298 RMK A01 T02590017  RH  021%=      5-min Rain = 0
KTUR 192050Z 16019G24KT 26/02 A298 RMK A01 T02580018  RH  021%=      5-min Rain = 0
KTUR 192055Z 18017G24KT 26/02 A298 RMK A01 T02580018  RH  021%=      5-min Rain = 0
KTUR 192100Z 16018G23KT 26/02 A298 RMK A01 T02590018  RH  021%=      5-min Rain = 0
KTUR 192105Z 17019G24KT 26/02 A2979 RMK A01 T02570019  RH  021%=      5-min Rain = 0
KTUR 192110Z 17019G25KT 26/02 A2979 RMK A01 T02560020  RH  022%=      5-min Rain = 0
KTUR 192115Z 17020G25KT 26/02 A2979 RMK A01 T02560020  RH  022%=      5-min Rain = 0
KTUR 192120Z 17016G21KT 26/02 A2979 RMK A01 T02580022  RH  022%=      5-min Rain = 0
KTUR 192125Z 17018G26KT 26/02 A2979 RMK A01 T02570022  RH  022%=      5-min Rain = 0
KTUR 192130Z 17018G24KT 26/02 A2979 RMK A01 T02570024  RH  022%=      5-min Rain = 0
KTUR 192135Z 17018KT 26/03 A2979 RMK A01 T02550027  RH  023%=      5-min Rain = 0
KTUR 192140Z 16018G23KT 25/03 A2979 RMK A01 T02520028  RH  024%=      5-min Rain = 0
KTUR 192145Z 16017KT 25/03 A2979 RMK A01 T02520029  RH  024%=      5-min Rain = 0
KTUR 192150Z 17017KT 25/03 A2979 RMK A01 T02520029  RH  024%=      5-min Rain = 0
KTUR 192155Z 16016G22KT 25/03 A2979 RMK A01 T02530028  RH  024%=      5-min Rain = 0
KTUR 192200Z 16016G22KT 25/03 A2978 RMK A01 T02530028  RH  024%=      5-min Rain = 0
KTUR 192205Z 15017KT 25/03 A2978 RMK A01 T02510027  RH  024%=      5-min Rain = 0
KTUR 192210Z 16017KT 25/03 A2978 RMK A01 T02510027  RH  024%=      5-min Rain = 0
KTUR 192215Z 16018KT 25/03 A2978 RMK A01 T02500027  RH  024%=      5-min Rain = 0
KTUR 192220Z 16016KT 25/03 A2978 RMK A01 T02490026  RH  024%=      5-min Rain = 0
KTUR 192225Z 15016KT 25/03 A2978 RMK A01 T02480025  RH  024%=      5-min Rain = 0
KTUR 192230Z 15015KT 25/03 A2978 RMK A01 T02480025  RH  024%=      5-min Rain = 0
KTUR 192235Z 15016KT 25/03 A2978 RMK A01 T02480026  RH  024%=      5-min Rain = 0
KTUR 192240Z 15014G19KT 25/03 A2978 RMK A01 T02460027  RH  024%=      5-min Rain = 0
KTUR 192245Z 16014KT 25/03 A2978 RMK A01 T02450028  RH  025%=      5-min Rain = 0
KTUR 192250Z 16015KT 24/03 A2978 RMK A01 T02430027  RH  025%=      5-min Rain = 0
KTUR 192255Z 16014KT 24/03 A2978 RMK A01 T02420027  RH  025%=      5-min Rain = 0
KTUR 192300Z 16014KT 24/03 A2978 RMK A01 T02400026  RH  025%=      5-min Rain = 0
KTUR 192305Z 16014KT 24/03 A2978 RMK A01 T02380026  RH  025%=      5-min Rain = 0
KTUR 192310Z 16013KT 24/03 A2978 RMK A01 T02350026  RH  026%=      5-min Rain = 0
KTUR 192315Z 15012KT 23/03 A2978 RMK A01 T02320026  RH  026%=      5-min Rain = 0
KTUR 192320Z 14011KT 23/03 A2978 RMK A01 T02260026  RH  027%=      5-min Rain = 0
KTUR 192325Z 14011KT 22/03 A2978 RMK A01 T02210029  RH  029%=      5-min Rain = 0
KTUR 192330Z 14011KT 22/03 A2978 RMK A01 T02170030  RH  030%=      5-min Rain = 0
KTUR 192335Z 14010KT 21/03 A2978 RMK A01 T02120030  RH  030%=      5-min Rain = 0
KTUR 192340Z 14010KT 21/03 A2978 RMK A01 T02080029  RH  031%=      5-min Rain = 0
KTUR 192345Z 14010KT 20/03 A2978 RMK A01 T02020029  RH  032%=      5-min Rain = 0
KTUR 192350Z 14010KT 20/03 A2978 RMK A01 T01970028  RH  033%=      5-min Rain = 0
KTUR 192355Z 14009KT 19/03 A2978 RMK A01 T01930030  RH  034%=      5-min Rain = 0
KTUR 200000Z 14010KT 19/03 A2978 RMK A01 T01890031  RH  035%=      5-min Rain = 0
KTUR 200005Z 14010KT 19/03 A2978 RMK A01 T01890033  RH  036%=      5-min Rain = 0
KTUR 200010Z 14010KT 19/03 A2978 RMK A01 T01870034  RH  037%=      5-min Rain = 0
KTUR 200015Z 14009KT 18/04 A2978 RMK A01 T01840035  RH  038%=      5-min Rain = 0
KTUR 200020Z 13009KT 18/04 A2978 RMK A01 T01800036  RH  039%=      5-min Rain = 0
KTUR 200025Z 13009KT 18/04 A2978 RMK A01 T01770037  RH  040%=      5-min Rain = 0
KTUR 200030Z 13010KT 18/04 A2978 RMK A01 T01760039  RH  041%=      5-min Rain = 0
KTUR 200035Z 14010KT 18/04 A2978 RMK A01 T01750040  RH  041%=      5-min Rain = 0
KTUR 200040Z 14010KT 18/04 A2978 RMK A01 T01760041  RH  041%=      5-min Rain = 0
KTUR 200045Z 14010KT 18/04 A2978 RMK A01 T01750042  RH  042%=      5-min Rain = 0
KTUR 200050Z 15010KT 17/04 A2979 RMK A01 T01730042  RH  043%=      5-min Rain = 0
KTUR 200055Z 15010KT 17/04 A2979 RMK A01 T01690042  RH  043%=      5-min Rain = 0
KTUR 200100Z 15009KT 17/04 A2979 RMK A01 T01670041  RH  044%=      5-min Rain = 0
KTUR 200105Z 15009KT 16/04 A2979 RMK A01 T01630040  RH  045%=      5-min Rain = 0
KTUR 200110Z 15009KT 16/04 A2978 RMK A01 T01610041  RH  045%=      5-min Rain = 0
KTUR 200115Z 15009KT 16/04 A2978 RMK A01 T01600041  RH  046%=      5-min Rain = 0
KTUR 200120Z 15010KT 16/04 A2978 RMK A01 T01600042  RH  046%=      5-min Rain = 0
KTUR 200125Z 15009KT 16/04 A2978 RMK A01 T01610043  RH  046%=      5-min Rain = 0
KTUR 200130Z 15009KT 16/04 A2978 RMK A01 T01570042  RH  047%=      5-min Rain = 0
KTUR 200135Z 15009KT 15/04 A2978 RMK A01 T01540042  RH  048%=      5-min Rain = 0
KTUR 200140Z 15009KT 16/04 A2978 RMK A01 T01550043  RH  048%=      5-min Rain = 0
KTUR 200145Z 15009KT 15/04 A2978 RMK A01 T01540043  RH  048%=      5-min Rain = 0
KTUR 200150Z 15009KT 15/04 A2979 RMK A01 T01530043  RH  048%=      5-min Rain = 0
KTUR 200155Z 14009KT 15/04 A2979 RMK A01 T01500043  RH  049%=      5-min Rain = 0
KTUR 200200Z 15009KT 15/04 A2979 RMK A01 T01460043  RH  051%=      5-min Rain = 0
KTUR 200205Z 14010KT 15/04 A2979 RMK A01 T01470044  RH  051%=      5-min Rain = 0
KTUR 200210Z 15009KT 15/04 A2979 RMK A01 T01450044  RH  051%=      5-min Rain = 0
KTUR 200215Z 14009KT 14/04 A2979 RMK A01 T01430043  RH  052%=      5-min Rain = 0
KTUR 200220Z 14009KT 14/04 A2978 RMK A01 T01420043  RH  052%=      5-min Rain = 0
KTUR 200225Z 15009KT 14/04 A2978 RMK A01 T01430042  RH  051%=      5-min Rain = 0
KTUR 200230Z 14009KT 14/04 A2978 RMK A01 T01410041  RH  052%=      5-min Rain = 0
KTUR 200235Z 14009KT 14/04 A2979 RMK A01 T01360040  RH  053%=      5-min Rain = 0
KTUR 200240Z 15009KT 13/04 A2979 RMK A01 T01340040  RH  054%=      5-min Rain = 0
KTUR 200245Z 15009KT 14/04 A2979 RMK A01 T01350040  RH  053%=      5-min Rain = 0
KTUR 200250Z 14009KT 13/04 A2979 RMK A01 T01340040  RH  053%=      5-min Rain = 0
KTUR 200255Z 14009KT 13/04 A2979 RMK A01 T01340039  RH  053%=      5-min Rain = 0
KTUR 200300Z 13009KT 13/04 A2979 RMK A01 T01310039  RH  054%=      5-min Rain = 0
KTUR 200305Z 12009KT 13/04 A2979 RMK A01 T01310039  RH  054%=      5-min Rain = 0
KTUR 200310Z 12009KT 13/04 A2979 RMK A01 T01310039  RH  054%=      5-min Rain = 0
KTUR 200315Z 13009KT 13/04 A2979 RMK A01 T01300038  RH  054%=      5-min Rain = 0
KTUR 200320Z 13009KT 13/04 A2979 RMK A01 T01260037  RH  055%=      5-min Rain = 0
KTUR 200325Z 13009KT 13/04 A2979 RMK A01 T01260038  RH  056%=      5-min Rain = 0
KTUR 200330Z 12008KT 13/04 A2979 RMK A01 T01270039  RH  056%=      5-min Rain = 0
KTUR 200335Z 11008KT 13/04 A2979 RMK A01 T01300040  RH  055%=      5-min Rain = 0
KTUR 200340Z 11009KT 13/04 A2979 RMK A01 T01300041  RH  055%=      5-min Rain = 0
KTUR 200345Z 11009KT 13/04 A2978 RMK A01 T01300041  RH  055%=      5-min Rain = 0
KTUR 200350Z 12009KT 13/04 A2978 RMK A01 T01300042  RH  056%=      5-min Rain = 0
KTUR 200355Z 12008KT 13/04 A2978 RMK A01 T01290042  RH  056%=      5-min Rain = 0
KTUR 200400Z 12007KT 13/04 A2978 RMK A01 T01260041  RH  057%=      5-min Rain = 0
KTUR 200405Z 12006KT 12/04 A2978 RMK A01 T01220040  RH  058%=      5-min Rain = 0
KTUR 200410Z 12006KT 12/04 A2978 RMK A01 T01190040  RH  059%=      5-min Rain = 0
KTUR 200415Z 13006KT 12/04 A2978 RMK A01 T01190041  RH  059%=      5-min Rain = 0
KTUR 200420Z 13006KT 12/04 A2978 RMK A01 T01190042  RH  060%=      5-min Rain = 0
KTUR 200425Z 12007KT 12/04 A2978 RMK A01 T01200043  RH  060%=      5-min Rain = 0
KTUR 200430Z 12007KT 12/04 A2978 RMK A01 T01180043  RH  061%=      5-min Rain = 0
KTUR 200435Z 13008KT 12/04 A2978 RMK A01 T01190044  RH  061%=      5-min Rain = 0
KTUR 200440Z 13008KT 12/05 A2978 RMK A01 T01200045  RH  061%=      5-min Rain = 0
KTUR 200445Z 14008KT 12/04 A2978 RMK A01 T01190044  RH  061%=      5-min Rain = 0
KTUR 200450Z 14010KT 12/04 A2978 RMK A01 T01170044  RH  062%=      5-min Rain = 0
KTUR 200455Z 15011KT 12/05 A2978 RMK A01 T01210047  RH  061%=      5-min Rain = 0
KTUR 200500Z 14011KT 13/05 A2978 RMK A01 T01290049  RH  059%=      5-min Rain = 0
KTUR 200505Z 14011KT 13/05 A2978 RMK A01 T01330051  RH  058%=      5-min Rain = 0
KTUR 200510Z 14010KT 13/05 A2978 RMK A01 T01340051  RH  058%=      5-min Rain = 0
KTUR 200515Z 14009KT 13/05 A2978 RMK A01 T01340051  RH  058%=      5-min Rain = 0
KTUR 200520Z 15009KT 13/05 A2978 RMK A01 T01310051  RH  059%=      5-min Rain = 0
KTUR 200525Z 15009KT 13/05 A2978 RMK A01 T01270050  RH  060%=      5-min Rain = 0
KTUR 200530Z 16010KT 13/05 A2978 RMK A01 T01260050  RH  060%=      5-min Rain = 0
KTUR 200535Z 16010KT 13/05 A2978 RMK A01 T01280049  RH  059%=      5-min Rain = 0
KTUR 200540Z 16011KT 14/05 A2978 RMK A01 T01360049  RH  057%=      5-min Rain = 0
KTUR 200545Z 16012KT 15/05 A2978 RMK A01 T01470051  RH  053%=      5-min Rain = 0
KTUR 200550Z 16012KT 16/05 A2978 RMK A01 T01560054  RH  051%=      5-min Rain = 0
KTUR 200555Z 16012KT 16/06 A2978 RMK A01 T01610057  RH  051%=      5-min Rain = 0

Page generated in 0.009 seconds.